Tiempo atmosférico en la estación meteorológica de Barbate, Cádiz (4 m.)



Fecha
DESCASC
Temp. máxima en grados centígrados (hora)
DESCASC
Temp. mínima en grados centígrados (hora)
DESCASC
Temp. media en grados centígrados
DESCASC
Racha de viento máxima en m/sg (hora)
DESCASC
Velocidad máxima media en intervalos de 10 minutos(hora)
DESCASC
Precipitaciones diarias en mm
DESCASC
Precipitaciones de 00:00 a 06:00 en mm
DESCASC
Precipitaciones de 06:00 a 12:00 en mm
DESCASC
Precipitaciones de 12:00 a 18:00 en mm
DESCASC
Precipitaciones de 18:00 a 24:00 en mm
DESCASC
22-04-2019 19.6 (14:10) 13.4 (08:40) 16.5 11.67 (18:50) 8.89 (19:30) 0 0 0 0 0
21-04-2019 18.3 (12:10) 12.8 (08:00) 15.5 8.61 (17:10) 6.94 (17:10) 0 0 0 0 0
20-04-2019 20 (15:10) 9.5 (07:40) 14.8 7.22 (20:50) 5.83 (21:10) 0 0 0 0 0
19-04-2019 19.7 (17:00) 10.2 (07:30) 15 7.22 (13:10) 6.11 (13:10) 0 0 0 0 0
18-04-2019 17.8 (15:50) 12.4 (00:00) 15.1 9.72 (00:10) 7.22 (00:10) 8.2 0 8.2 0 0
17-04-2019 21.5 (13:10) 16.4 (00:00) 18.9 18.89 (06:30) 12.5 (06:20) 0 0 0 0 0
16-04-2019 24.7 (18:40) 11.1 (00:00) 17.9 8.33 (22:30) 5.83 (18:50) 0 0 0 0 0
15-04-2019 21.2 (13:20) 12.3 (00:00) 16.8 11.67 (17:20) 8.89 (17:20) 0 0 0 0 0
14-04-2019 21.9 (18:50) 9.8 (00:00) 15.8 5.83 (14:30) 5 (14:30) 0 0 0 0 0
13-04-2019 20.3 (19:10) 8.7 (00:00) 14.5 9.44 (17:50) 8.06 (17:40) 0 0 0 0 0
12-04-2019 19.8 (19:30) 10.6 (00:00) 15.2 8.61 (18:00) 7.22 (18:40) 0 0 0 0 0
11-04-2019 17.6 (12:00) 10 (00:00) 13.8 10 (16:00) 8.61 (17:00) 0 0 0 0 0
10-04-2019 18.3 (16:10) 9.9 (00:00) 14.1 11.39 (19:20) 8.06 (18:50) 0 0 0 0 0
09-04-2019 17.4 (14:50) 10 (00:00) 13.7 10.83 (14:40) 8.06 (13:40) 0.8 0 0 0.8 0
08-04-2019 19.2 (15:20) 13.7 (00:00) 16.5 12.22 (01:00) 8.61 (01:10) 1.4 0.2 0 0.4 0.8
07-04-2019 17.7 (14:20) 12.9 (00:00) 15.3 13.61 (11:50) 10.83 (11:50) 0 0 0 0 0
06-04-2019 15.7 (16:30) 9.6 (00:00) 12.7 15.56 (02:10) 10.28 (18:00) 17 9.4 4.6 3 0
05-04-2019 15.8 (18:00) 12 (00:00) 13.9 20.28 (08:10) 13.61 (07:20) 12.4 0 12.2 0.2 0
04-04-2019 16.8 (16:10) 8.6 (00:00) 12.7 11.11 (22:40) 8.06 (13:50) 0 0 0 0 0
03-04-2019 22.6 (16:50) 9.3 (00:00) 16 9.44 (19:20) 6.94 (19:20) 0 0 0 0 0
02-04-2019 20.8 (13:20) 9.4 (00:00) 15.1 5.83 (16:50) 5 (16:50) 0 0 0 0 0
01-04-2019 19.7 (17:20) 13.6 (00:00) 16.7 12.5 (05:00) 10.28 (10:10) 16.6 11.8 4.8 0 0
31-03-2019 20.8 (16:50) 13.6 (00:00) 17.2 13.61 (03:20) 8.89 (13:30) 0 0 0 0 0
30-03-2019 19 (13:00) 14.4 (00:00) 16.7 22.22 (01:10) 13.06 (00:10) 0 0 0 0 0
29-03-2019 19 (12:00) 14.2 (00:00) 16.6 22.5 (00:30) 12.5 (00:30) 0 0 0 0 0
28-03-2019 19.3 (15:00) 13.8 (00:00) 16.5 23.61 (12:40) 15.28 (12:50) 0 0 0 0 0
27-03-2019 18.4 (16:10) 14.6 (00:00) 16.5 24.44 (00:40) 14.72 (00:20) 0 0 0 0 0

Gráficas

Temp. máximas Temp. mínimas Temp. medias Precipitaciones Rachas de viento máximas Velocidades máximas media en intervalos de 10 minutos

Datos horarios

Fecha y hora oficial Temperatura (ºC) Velocidad del viento (km/h) Dirección del viento Racha (km/h) Dirección de racha Precipitación (mm) Presión (hPa) Tendencia (hPa) Humedad (%)
2019-04-25 23:00:00 15.2 20 Noroeste 30 Oeste 0 -- -- 81
2019-04-25 22:00:00 15.3 18 Noroeste 28 Oeste 0 -- -- 79
2019-04-25 21:00:00 16 17 Oeste 34 Oeste 0 -- -- 74
2019-04-25 20:00:00 17.5 22 Noroeste 37 Oeste 0 -- -- 69
2019-04-25 19:00:00 18.3 22 Oeste 39 Oeste 0 -- -- 68
2019-04-25 18:00:00 18.7 21 Noroeste 40 Oeste 0 -- -- 68
2019-04-25 17:00:00 18.8 23 Oeste 39 Oeste 0 -- -- 66
2019-04-25 16:00:00 18.2 23 Oeste 37 Oeste 0 -- -- 77
2019-04-25 15:00:00 17.5 23 Oeste 28 Oeste 0 -- -- 87
2019-04-25 14:00:00 17.2 21 Oeste 29 Oeste 0 -- -- 85
2019-04-25 13:00:00 16.2 21 Oeste 34 Oeste 0 -- -- 94
2019-04-25 12:00:00 16.2 13 Oeste 21 Noroeste 0 -- -- 95
2019-04-25 11:00:00 15.5 15 Oeste 28 Oeste 0 -- -- 93
2019-04-25 10:00:00 15.3 14 Oeste 29 Oeste 0 -- -- 97
2019-04-25 09:00:00 14.9 14 Oeste 25 Noroeste 1.6 -- -- 100
2019-04-25 08:00:00 15 22 Noroeste 51 Oeste 7.2 -- -- 100
2019-04-25 07:00:00 16.5 39 Sudoeste 47 Sudoeste 0.2 -- -- 98
2019-04-25 06:00:00 16.6 34 Sudoeste 42 Sudoeste 0.2 -- -- 98
2019-04-25 05:00:00 16.8 33 Sudoeste 41 Sudoeste 0 -- -- 97
2019-04-25 04:00:00 16.8 30 Sudoeste 43 Sudoeste 0 -- -- 96
2019-04-25 03:00:00 16.9 33 Sudoeste 44 Sudoeste 0 -- -- 95
2019-04-25 02:00:00 16.9 33 Sudoeste 42 Sudoeste 0 -- -- 95
2019-04-25 01:00:00 16.8 31 Sudoeste 40 Sudoeste 0 -- -- 94
2019-04-25 00:00:00 16.8 32 Sudoeste 39 Sudoeste 0 -- -- 94
2019-04-24 23:00:00 16.7 24 Sudoeste 44 Sudoeste 0 -- -- 95
2019-04-24 22:00:00 16.8 27 Sudoeste 35 Sudoeste 0 -- -- 93
2019-04-24 21:00:00 16.7 27 Sudoeste 41 Sudoeste 0 -- -- 91
2019-04-24 20:00:00 16.8 31 Sudoeste 43 Sudoeste 0 -- -- 90
2019-04-24 19:00:00 17.1 33 Sudoeste 45 Sudoeste 0 -- -- 88
2019-04-24 18:00:00 17.6 38 Sudoeste 52 Sudoeste 0 -- -- 85
2019-04-24 17:00:00 17.9 37 Sudoeste 46 Sudoeste 0 -- -- 82
2019-04-24 16:00:00 18.3 36 Sudoeste 51 Sudoeste 0 -- -- 80
2019-04-24 15:00:00 17 39 Sudoeste 54 Sudoeste 0 -- -- 86
2019-04-24 14:00:00 17.1 42 Sudoeste 53 Sudoeste 0 -- -- 87
2019-04-24 13:00:00 16.2 42 Sudoeste 51 Sudoeste 0 -- -- 88
2019-04-24 12:00:00 16.1 40 Sudoeste 50 Sur 0 -- -- 88
2019-04-24 11:00:00 15.7 40 Sudoeste 50 Sudoeste 0 -- -- 91
2019-04-24 10:00:00 14.6 35 Sudoeste 45 Sudoeste 0.4 -- -- 94
2019-04-24 09:00:00 15.8 33 Sudoeste 44 Sudoeste 0 -- -- 80
2019-04-24 08:00:00 14.9 31 Sudoeste 54 Sudoeste 0 -- -- 85
2019-04-24 07:00:00 15.2 34 Sudoeste 42 Sudoeste 0 -- -- 82
2019-04-24 06:00:00 15.1 33 Oeste 49 Sudoeste 0 -- -- 85
2019-04-24 05:00:00 15 26 Oeste 40 Oeste 0 -- -- 84
2019-04-24 04:00:00 14.4 23 Oeste 47 Oeste 0.2 -- -- 84
2019-04-24 03:00:00 14.3 16 Noroeste 42 Oeste 0 -- -- 78
2019-04-24 02:00:00 15.1 31 Oeste 41 Oeste 0 -- -- 75
2019-04-24 01:00:00 15.2 31 Oeste 41 Oeste 0 -- -- 75
2019-04-24 00:00:00 15.1 25 Oeste 40 Oeste 0 -- -- 75
2019-04-23 23:00:00 15.2 27 Oeste 37 Oeste 0 -- -- 71
2019-04-23 22:00:00 14.9 19 Oeste 41 Oeste 0 -- -- 70
2019-04-23 21:00:00 15.1 21 Oeste 42 Oeste 0 -- -- 72
2019-04-23 20:00:00 15.8 27 Oeste 40 Oeste 0 -- -- 69
2019-04-23 19:00:00 16.1 27 Oeste 41 Oeste 0 -- -- 65
2019-04-23 18:00:00 15.7 23 Oeste 44 Oeste 0 -- -- 67
2019-04-23 17:00:00 15.9 27 Oeste 43 Noroeste 0 -- -- 68
2019-04-23 16:00:00 16.2 27 Oeste 42 Oeste 0 -- -- 69
2019-04-23 15:00:00 16.5 22 Oeste 33 Oeste 0 -- -- 71
2019-04-23 14:00:00 14.1 21 Noroeste 47 Noroeste 0.2 -- -- 82
2019-04-23 13:00:00 16.3 19 Noroeste 36 Noroeste 0 -- -- 66
2019-04-23 12:00:00 14.4 14 Noroeste 28 Noroeste 0 -- -- 77
2019-04-23 11:00:00 12.9 7 Norte 12 Noroeste 0 -- -- 98
2019-04-23 10:00:00 12 7 Norte 27 Noroeste 3 -- -- 100
2019-04-23 09:00:00 12.6 4 Norte 20 Noroeste 0.8 -- -- 100
2019-04-23 08:00:00 12.7 13 Noroeste 38 Noroeste 2.2 -- -- 100
2019-04-23 07:00:00 13.8 28 Noroeste 68 Sudoeste 3.4 -- -- 99
2019-04-23 06:00:00 15.2 32 Sudoeste 48 Sudoeste 1.6 -- -- 98
2019-04-23 05:00:00 16.5 30 Sudoeste 46 Sudoeste 0 -- -- 89
2019-04-23 04:00:00 16.5 30 Sudoeste 41 Oeste 0 -- -- 89
2019-04-23 03:00:00 16.6 33 Sudoeste 42 Sudoeste 0 -- -- 88
2019-04-23 02:00:00 16.7 32 Oeste 38 Sudoeste 0 -- -- 91
2019-04-23 01:00:00 16.7 25 Sudoeste 32 Oeste 0 -- -- 92
2019-04-23 00:00:00 16.8 21 Sudoeste 30 Oeste 0 -- -- 92
2019-04-22 23:00:00 16.8 28 Oeste 39 Oeste 0 -- -- 86
2019-04-22 22:00:00 16.8 24 Oeste 37 Oeste 0 -- -- 89
2019-04-22 21:00:00 16.8 26 Oeste 40 Oeste 0 -- -- 90
2019-04-22 20:00:00 17 29 Oeste 41 Oeste 0 -- -- 91
2019-04-22 19:00:00 17.7 28 Oeste 42 Oeste 0 -- -- 90
2019-04-22 18:00:00 18.2 24 Oeste 36 Oeste 0 -- -- 90
2019-04-22 17:00:00 18.6 29 Oeste 35 Oeste 0 -- -- 88
2019-04-22 16:00:00 18.8 30 Oeste 38 Oeste 0 -- -- 87
2019-04-22 15:00:00 18.9 29 Oeste 35 Oeste 0 -- -- 88
2019-04-22 14:00:00 19.5 21 Sudoeste 26 Sudoeste 0 -- -- 89
2019-04-22 13:00:00 19.2 11 Sur 13 Sur 0 -- -- 90
2019-04-22 12:00:00 17.9 4 Sur 10 Sudoeste 0 -- -- 96
2019-04-22 11:00:00 16.5 6 Sudoeste 8 Sudoeste 0 -- -- 98
2019-04-22 10:00:00 15.4 0 Calma 8 Norte 0 -- -- 99
2019-04-22 09:00:00 13.6 5 Norte 12 Norte 0 -- -- 100
2019-04-22 08:00:00 13.6 0 Calma 6 Norte 0 -- -- 99
2019-04-22 07:00:00 14 2 Nordeste 8 Este 0 -- -- 98
2019-04-22 06:00:00 14.5 4 Norte 9 Oeste 0 -- -- 98
2019-04-22 05:00:00 14 4 Sudeste 13 Norte 0 -- -- 97
2019-04-22 04:00:00 14.5 8 Norte 21 Noroeste 0 -- -- 95
2019-04-22 03:00:00 14.6 12 Noroeste 18 Norte 0 -- -- 93
2019-04-22 02:00:00 14.8 13 Noroeste 17 Noroeste 0 -- -- 91
2019-04-22 01:00:00 14.4 6 Norte 19 Noroeste 0 -- -- 91
2019-04-22 00:00:00 15.3 12 Norte 23 Noroeste 0 -- -- 87
2019-04-21 23:00:00 16 16 Noroeste 26 Noroeste 0 -- -- 85
2019-04-21 22:00:00 17.1 13 Noroeste 23 Noroeste 0 -- -- 75
2019-04-21 21:00:00 17.3 4 Noroeste 9 Noroeste 0 -- -- 85
2019-04-21 20:00:00 17.2 5 Sur 14 Sudoeste 0 -- -- 92
2019-04-21 19:00:00 16.9 14 Sudoeste 26 Oeste 0 -- -- 89
2019-04-21 18:00:00 16.9 23 Oeste 31 Oeste 0 -- -- 86
2019-04-21 17:00:00 17.2 21 Oeste 27 Oeste 0 -- -- 83
2019-04-21 16:00:00 17.9 20 Oeste 26 Oeste 0 -- -- 81
2019-04-21 15:00:00 16.8 22 Oeste 27 Oeste 0 -- -- 84
2019-04-21 14:00:00 17.3 22 Oeste 28 Oeste 0 -- -- 80
2019-04-21 13:00:00 17.2 14 Oeste 18 Sudoeste 0 -- -- 85
2019-04-21 12:00:00 17.8 8 Sudoeste 10 Sudoeste 0 -- -- 81
2019-04-21 11:00:00 16.2 3 Norte 8 Nordeste 0 -- -- 83
2019-04-21 10:00:00 13.7 6 Nordeste 13 Nordeste 0 -- -- 96
2019-04-21 09:00:00 13 8 Nordeste 13 Nordeste 0 -- -- 97
2019-04-21 08:00:00 12.8 6 Norte 12 Norte 0 -- -- 95
2019-04-21 07:00:00 13.3 6 Norte 10 Norte 0 -- -- 95
2019-04-21 06:00:00 13.8 4 Norte 13 Nordeste 0 -- -- 96
2019-04-21 05:00:00 13.6 6 Nordeste 13 Norte 0 -- -- 95
2019-04-21 04:00:00 14.2 5 Nordeste 10 Norte 0 -- -- 91
2019-04-21 03:00:00 14.7 7 Norte 16 Este 0 -- -- 87
2019-04-21 02:00:00 14.9 6 Norte 21 Este 0 -- -- 86
2019-04-21 01:00:00 15.4 16 Este 23 Este 0 -- -- 83
2019-04-21 00:00:00 15.5 14 Este 22 Este 0 -- -- 84
2019-04-20 23:00:00 15.5 14 Este 18 Este 0 -- -- 85
2019-04-20 22:00:00 16.2 8 Sudeste 24 Sudeste 0 -- -- 81
2019-04-20 21:00:00 16.4 18 Sudeste 26 Sudeste 0 -- -- 89
2019-04-20 20:00:00 17.8 5 Sudeste 13 Oeste 0 -- -- 86
2019-04-20 19:00:00 17.9 8 Oeste 16 Oeste 0 -- -- 87
2019-04-20 18:00:00 18.9 12 Oeste 16 Oeste 0 -- -- 81
2019-04-20 17:00:00 19.1 13 Sur 19 Sur 0 -- -- 81
2019-04-20 16:00:00 19.1 14 Sur 24 Sur 0 -- -- 82
2019-04-20 15:00:00 19.7 15 Sudoeste 22 Sudoeste 0 -- -- 75
2019-04-20 14:00:00 19 17 Sudoeste 22 Sudoeste 0 -- -- 78
2019-04-20 13:00:00 18.6 8 Norte 21 Norte 0 -- -- 70
2019-04-20 12:00:00 17.2 11 Norte 18 Nordeste 0 -- -- 76
2019-04-20 11:00:00 14.9 14 Nordeste 19 Nordeste 0 -- -- 86
2019-04-20 10:00:00 11.9 11 Nordeste 17 Norte 0 -- -- 97
2019-04-20 09:00:00 10.3 9 Norte 14 Norte 0 -- -- 99
2019-04-20 08:00:00 9.6 9 Nordeste 21 Nordeste 0 -- -- 99
2019-04-20 07:00:00 10.6 6 Norte 11 Norte 0 -- -- 99
2019-04-20 06:00:00 10.7 8 Nordeste 11 Norte 0 -- -- 97
2019-04-20 05:00:00 10.9 9 Norte 15 Norte 0 -- -- 98
2019-04-20 04:00:00 10.6 9 Nordeste 14 Norte 0 -- -- 98
2019-04-20 03:00:00 11.2 5 Nordeste 12 Norte 0 -- -- 96
2019-04-20 02:00:00 11.6 8 Nordeste 11 Norte 0 -- -- 95
2019-04-20 01:00:00 12.6 6 Norte 14 Norte 0 -- -- 94
2019-04-20 00:00:00 12.8 4 Norte 12 Nordeste 0 -- -- 95
2019-04-19 23:00:00 13.7 8 Norte 14 Norte 0 -- -- 93
2019-04-19 22:00:00 14.9 4 Norte 14 Noroeste 0 -- -- 88
2019-04-19 21:00:00 16.3 6 Norte 18 Noroeste 0 -- -- 79
2019-04-19 20:00:00 18.4 11 Noroeste 22 Oeste 0 -- -- 72
2019-04-19 19:00:00 18.2 18 Oeste 22 Oeste 0 -- -- 78
2019-04-19 18:00:00 18.5 17 Oeste 20 Oeste 0 -- -- 74
2019-04-19 17:00:00 19.7 9 Sudoeste 16 Oeste 0 -- -- 70
2019-04-19 16:00:00 17.6 11 Sudoeste 22 Norte 0 -- -- 82
2019-04-19 15:00:00 15.8 14 Noroeste 22 Sudoeste 0 -- -- 86
2019-04-19 14:00:00 16.6 19 Sudoeste 26 Sudoeste 0 -- -- 83
2019-04-19 13:00:00 17.7 21 Sudoeste 25 Sudoeste 0 -- -- 81
2019-04-19 12:00:00 17.8 18 Sudoeste 23 Sudoeste 0 -- -- 81
2019-04-19 11:00:00 16.6 21 Sudoeste 24 Sudoeste 0 -- -- 87
2019-04-19 10:00:00 13.1 5 Norte 12 Nordeste 0 -- -- 100
2019-04-19 09:00:00 11 8 Norte 11 Norte 0 -- -- 100
2019-04-19 08:00:00 10.2 7 Norte 10 Nordeste 0 -- -- 100
2019-04-19 07:00:00 10.4 6 Norte 12 Nordeste 0 -- -- 100
2019-04-19 06:00:00 10.8 6 Norte 11 Norte 0 -- -- 100
2019-04-19 05:00:00 11 7 Norte 13 Norte 0 -- -- 100
2019-04-19 04:00:00 11.3 8 Norte 11 Norte 0 -- -- 98
2019-04-19 03:00:00 12.5 4 Nordeste 6 Nordeste 0 -- -- 97
2019-04-19 02:00:00 13.1 2 Nordeste 7 Nordeste 0 -- -- 96
2019-04-19 01:00:00 13.4 4 Este 12 Noroeste 0 -- -- 94
2019-04-19 00:00:00 14.7 8 Noroeste 15 Noroeste 0 -- -- 87
2019-04-18 23:00:00 14.6 5 Noroeste 9 Oeste 0 -- -- 88
2019-04-18 22:00:00 15 6 Oeste 13 Noroeste 0 -- -- 86
2019-04-18 21:00:00 15.7 10 Noroeste 26 Noroeste 0 -- -- 79
2019-04-18 20:00:00 17.4 17 Noroeste 27 Oeste 0 -- -- 70
2019-04-18 19:00:00 17.6 18 Oeste 26 Oeste 0 -- -- 77
2019-04-18 18:00:00 17.4 21 Oeste 27 Oeste 0 -- -- 79
2019-04-18 17:00:00 17.6 19 Oeste 26 Sudoeste 0 -- -- 75
2019-04-18 16:00:00 17.7 18 Oeste 26 Oeste 0 -- -- 77
2019-04-18 15:00:00 17.2 15 Oeste 21 Sudoeste 0 -- -- 78
2019-04-18 14:00:00 15.9 10 Oeste 18 Oeste 0 -- -- 86
2019-04-18 13:00:00 16.3 7 Sudoeste 14 Oeste 0 -- -- 87
2019-04-18 12:00:00 14.7 4 Sur 15 Sudeste 0.6 -- -- 94
2019-04-18 11:00:00 13 0 Calma 12 Este 2.6 -- -- 98
2019-04-18 10:00:00 12.8 7 Este 19 Norte 1.6 -- -- 97
2019-04-18 09:00:00 12.4 10 Nordeste 25 Noroeste 3.4 -- -- 94
2019-04-18 08:00:00 14.1 6 Norte 10 Norte 0 -- -- 95
2019-04-18 07:00:00 14 0 Calma 7 Este 0 -- -- 93
2019-04-18 06:00:00 14.2 4 Nordeste 13 Noroeste 0 -- -- 90
2019-04-18 05:00:00 14.8 7 Noroeste 11 Oeste 0 -- -- 89
2019-04-18 04:00:00 15.6 6 Oeste 18 Sudoeste 0 -- -- 87
2019-04-18 03:00:00 15.9 13 Oeste 26 Oeste 0 -- -- 88
2019-04-18 02:00:00 16 20 Sudoeste 28 Sudoeste 0 -- -- 89
2019-04-18 01:00:00 16.8 22 Sudoeste 35 Sur 0 -- -- 86
2019-04-18 00:00:00 16.4 27 Sur 36 Sudeste 0 -- -- 78
2019-04-17 23:00:00 17.1 20 Sur 27 Sur 0 -- -- 72
2019-04-17 22:00:00 16.8 9 Sur 13 Sudeste 0 -- -- 69
2019-04-17 21:00:00 16.7 5 Sudeste 13 Oeste 0 -- -- 74
2019-04-17 20:00:00 16.8 10 Noroeste 35 Noroeste 0 -- -- 72
2019-04-17 19:00:00 17.3 19 Sudoeste 30 Oeste 0 -- -- 89
2019-04-17 18:00:00 17.9 22 Sur 38 Sur 0 -- -- 88
2019-04-17 17:00:00 19.3 6 Sur 24 Sur 0 -- -- 81
2019-04-17 16:00:00 20 16 Sudeste 32 Sudeste 0 -- -- 76
2019-04-17 15:00:00 20 25 Sudeste 39 Sudeste 0 -- -- 75
2019-04-17 14:00:00 20.1 21 Sudeste 35 Sudeste 0 -- -- 74
2019-04-17 13:00:00 21.2 16 Sudeste 39 Este 0 -- -- 71
2019-04-17 12:00:00 19.6 17 Sudeste 41 Sudeste 0 -- -- 75
2019-04-17 11:00:00 18.6 26 Sudeste 42 Sudeste 0 -- -- 77
2019-04-17 10:00:00 18.7 13 Sudeste 37 Este 0 -- -- 75
2019-04-17 09:00:00 17.6 13 Sudeste 29 Sudeste 0 -- -- 77
2019-04-17 08:00:00 16.9 21 Sudeste 54 Sudeste 0 -- -- 79
2019-04-17 07:00:00 16.9 35 Sudeste 68 Sudeste 0 -- -- 80
2019-04-17 06:00:00 16.8 42 Sudeste 66 Sudeste 0 -- -- 82
2019-04-17 05:00:00 16.8 28 Sudeste 51 Este 0 -- -- 81
2019-04-17 04:00:00 17 24 Sudeste 47 Este 0 -- -- 79
2019-04-17 03:00:00 17.1 28 Este 46 Este 0 -- -- 78
2019-04-17 02:00:00 17.9 15 Sudeste 32 Este 0 -- -- 67
2019-04-17 01:00:00 17.6 9 Este 14 Este 0 -- -- 64
2019-04-17 00:00:00 18.8 8 Sudeste 27 Sudeste 0 -- -- 61
2019-04-16 23:00:00 18.5 10 Sudeste 30 Sudeste 0 -- -- 59
2019-04-16 22:00:00 18.8 5 Sudeste 23 Este 0 -- -- 58
2019-04-16 21:00:00 19.9 12 Este 28 Este 0 -- -- 53
2019-04-16 20:00:00 23.2 10 Este 24 Este 0 -- -- 42
2019-04-16 19:00:00 24.2 19 Este 28 Este 0 -- -- 37
2019-04-16 18:00:00 21.7 8 Sudoeste 20 Oeste 0 -- -- 65
2019-04-16 17:00:00 20.6 15 Oeste 19 Sudoeste 0 -- -- 68
2019-04-16 16:00:00 20.2 14 Sudoeste 18 Oeste 0 -- -- 70
2019-04-16 15:00:00 19.6 14 Oeste 17 Sudoeste 0 -- -- 75
2019-04-16 14:00:00 19.4 14 Oeste 17 Oeste 0 -- -- 78
2019-04-16 13:00:00 19.8 11 Sudoeste 13 Sudoeste 0 -- -- 77
2019-04-16 12:00:00 18.9 9 Sudoeste 12 Sudoeste 0 -- -- 81
2019-04-16 11:00:00 18 5 Sudoeste 10 Norte 0 -- -- 85
2019-04-16 10:00:00 15.4 6 Norte 10 Norte 0 -- -- 96
2019-04-16 09:00:00 12.6 5 Norte 11 Nordeste 0 -- -- 100
2019-04-16 08:00:00 11.3 6 Norte 10 Norte 0 -- -- 98
2019-04-16 07:00:00 12.9 5 Nordeste 7 Nordeste 0 -- -- 97
2019-04-16 06:00:00 14.7 0 Calma 5 Oeste 0 -- -- 95
2019-04-16 05:00:00 15 0 Calma 10 Oeste 0 -- -- 93
2019-04-16 04:00:00 15.5 8 Oeste 20 Oeste 0 -- -- 91
2019-04-16 03:00:00 15.5 10 Oeste 14 Oeste 0 -- -- 90
2019-04-16 02:00:00 15.1 0 Calma 13 Noroeste 0 -- -- 89
2019-04-16 01:00:00 15.3 7 Oeste 26 Oeste 0 -- -- 87
2019-04-16 00:00:00 15.8 18 Oeste 28 Oeste 0 -- -- 88
2019-04-15 23:00:00 15.9 8 Oeste 16 Oeste 0 -- -- 89
2019-04-15 22:00:00 16.2 7 Oeste 21 Oeste 0 -- -- 87
2019-04-15 21:00:00 17.1 14 Oeste 36 Noroeste 0 -- -- 89
2019-04-15 20:00:00 18.1 23 Oeste 30 Oeste 0 -- -- 88
2019-04-15 19:00:00 18.8 26 Oeste 36 Oeste 0 -- -- 87
2019-04-15 18:00:00 19.3 25 Oeste 42 Oeste 0 -- -- 83
2019-04-15 17:00:00 18.9 31 Oeste 40 Oeste 0 -- -- 86
2019-04-15 16:00:00 19.1 28 Oeste 35 Oeste 0 -- -- 84
2019-04-15 15:00:00 20.5 24 Oeste 36 Oeste 0 -- -- 74
2019-04-15 14:00:00 19.6 29 Oeste 37 Oeste 0 -- -- 76
2019-04-15 13:00:00 20.9 11 Sudoeste 20 Sudoeste 0 -- -- 79
2019-04-15 12:00:00 19.8 11 Oeste 16 Oeste 0 -- -- 73
2019-04-15 11:00:00 19.4 9 Oeste 10 Oeste 0 -- -- 72
2019-04-15 10:00:00 16.3 5 Nordeste 9 Norte 0 -- -- 76
2019-04-15 09:00:00 13.1 6 Nordeste 9 Nordeste 0 -- -- 87
2019-04-15 08:00:00 12.3 8 Nordeste 12 Nordeste 0 -- -- 90
2019-04-15 07:00:00 12.4 9 Nordeste 17 Norte 0 -- -- 87
2019-04-15 06:00:00 13.4 11 Norte 16 Nordeste 0 -- -- 81
2019-04-15 05:00:00 12.7 10 Norte 14 Norte 0 -- -- 92
2019-04-15 04:00:00 13 9 Norte 13 Norte 0 -- -- 90
2019-04-15 03:00:00 14.1 9 Norte 12 Norte 0 -- -- 92
2019-04-15 02:00:00 14.6 8 Norte 12 Norte 0 -- -- 85
2019-04-15 01:00:00 16.3 5 Norte 6 Norte 0 -- -- 85
2019-04-15 00:00:00 17.3 5 Sudoeste 8 Sudoeste 0 -- -- 93
2019-04-14 23:00:00 17.8 5 Sur 7 Sudeste 0 -- -- 91
2019-04-14 22:00:00 18.8 3 Este 5 Este 0 -- -- 81
2019-04-14 21:00:00 19.6 0 Calma 5 Sur 0 -- -- 84
2019-04-14 20:00:00 20.3 4 Sur 13 Oeste 0 -- -- 78
2019-04-14 19:00:00 21.1 12 Oeste 17 Oeste 0 -- -- 75
2019-04-14 18:00:00 21.7 13 Oeste 18 Oeste 0 -- -- 72
2019-04-14 17:00:00 20.9 17 Sudoeste 21 Oeste 0 -- -- 72
2019-04-14 16:00:00 20.8 15 Sudoeste 19 Sudoeste 0 -- -- 81
2019-04-14 15:00:00 20 17 Oeste 21 Sudoeste 0 -- -- 85
2019-04-14 14:00:00 19.5 15 Oeste 17 Sudoeste 0 -- -- 84
2019-04-14 13:00:00 19.8 10 Sudoeste 12 Sudoeste 0 -- -- 82
2019-04-14 12:00:00 19.1 8 Sudoeste 10 Sudoeste 0 -- -- 84
2019-04-14 11:00:00 17.4 3 Sudoeste 9 Nordeste 0 -- -- 91
2019-04-14 10:00:00 13.6 6 Norte 11 Norte 0 -- -- 96
2019-04-14 09:00:00 10.7 7 Nordeste 11 Norte 0 -- -- 100
2019-04-14 08:00:00 9.9 7 Norte 12 Norte 0 -- -- 100
2019-04-14 07:00:00 10.2 8 Norte 9 Norte 0 -- -- 98
2019-04-14 06:00:00 11.2 5 Norte 7 Norte 0 -- -- 99
2019-04-14 05:00:00 11 7 Norte 9 Norte 0 -- -- 98
2019-04-14 04:00:00 11.8 5 Norte 10 Norte 0 -- -- 98
2019-04-14 03:00:00 12.5 6 Norte 12 Nordeste 0 -- -- 97
2019-04-14 02:00:00 13 9 Norte 12 Norte 0 -- -- 96
2019-04-14 01:00:00 13.5 4 Nordeste 7 Norte 0 -- -- 94
2019-04-14 00:00:00 14.3 5 Norte 12 Nordeste 0 -- -- 90
2019-04-13 23:00:00 14.9 10 Nordeste 12 Este 0 -- -- 84
2019-04-13 22:00:00 16.5 3 Norte 11 Norte 0 -- -- 80
2019-04-13 21:00:00 17.6 7 Noroeste 17 Noroeste 0 -- -- 75
2019-04-13 20:00:00 19.4 11 Oeste 16 Oeste 0 -- -- 75
2019-04-13 19:00:00 19.5 15 Sudoeste 31 Oeste 0 -- -- 76
2019-04-13 18:00:00 19 27 Oeste 34 Oeste 0 -- -- 82
2019-04-13 17:00:00 19.2 27 Oeste 32 Oeste 0 -- -- 82
2019-04-13 16:00:00 19.6 18 Oeste 22 Oeste 0 -- -- 81
2019-04-13 15:00:00 19.7 17 Sudoeste 20 Oeste 0 -- -- 78
2019-04-13 14:00:00 19.8 15 Sudoeste 18 Sudoeste 0 -- -- 79
2019-04-13 13:00:00 19.2 14 Sudoeste 19 Sudoeste 0 -- -- 84
2019-04-13 12:00:00 18.6 14 Sudoeste 17 Sudoeste 0 -- -- 85
2019-04-13 11:00:00 16.7 8 Sur 10 Norte 0 -- -- 89
2019-04-13 10:00:00 12 8 Nordeste 14 Norte 0 -- -- 95
2019-04-13 09:00:00 9.8 7 Norte 10 Norte 0 -- -- 100
2019-04-13 08:00:00 8.7 7 Norte 12 Norte 0 -- -- 100
2019-04-13 07:00:00 8.9 8 Norte 12 Nordeste 0 -- -- 99
2019-04-13 06:00:00 9.5 8 Norte 10 Norte 0 -- -- 99
2019-04-13 05:00:00 10 7 Norte 10 Norte 0 -- -- 98
2019-04-13 04:00:00 10.7 8 Nordeste 9 Nordeste 0 -- -- 98
2019-04-13 03:00:00 11.5 5 Nordeste 8 Norte 0 -- -- 95
2019-04-13 02:00:00 12.2 6 Norte 11 Nordeste 0 -- -- 93
2019-04-13 01:00:00 13.4 4 Norte 6 Norte 0 -- -- 88
2019-04-13 00:00:00 13.9 2 Este 9 Este 0 -- -- 87
2019-04-12 23:00:00 15 5 Nordeste 9 Noroeste 0 -- -- 82
2019-04-12 22:00:00 15.7 4 Norte 13 Norte 0 -- -- 80
2019-04-12 21:00:00 17.4 6 Noroeste 17 Norte 0 -- -- 67
2019-04-12 20:00:00 19.7 8 Oeste 23 Oeste 0 -- -- 59
2019-04-12 19:00:00 18.5 22 Sudoeste 31 Oeste 0 -- -- 80
2019-04-12 18:00:00 18.1 26 Oeste 31 Oeste 0 -- -- 87
2019-04-12 17:00:00 18.4 22 Sudoeste 26 Oeste 0 -- -- 86
2019-04-12 16:00:00 18.9 21 Oeste 24 Sudoeste 0 -- -- 83
2019-04-12 15:00:00 19.2 19 Sudoeste 22 Sudoeste 0 -- -- 82
2019-04-12 14:00:00 19.2 16 Sudoeste 21 Sudoeste 0 -- -- 78
2019-04-12 13:00:00 18.5 16 Sudoeste 19 Sudoeste 0 -- -- 84
2019-04-12 12:00:00 17.6 15 Sudoeste 19 Sudoeste 0 -- -- 86
2019-04-12 11:00:00 16.8 5 Sudoeste 6 Sudoeste 0 -- -- 90
2019-04-12 10:00:00 13.5 5 Norte 10 Norte 0 -- -- 98
2019-04-12 09:00:00 11.6 6 Norte 12 Norte 0 -- -- 100
2019-04-12 08:00:00 10.7 7 Norte 12 Norte 0 -- -- 100
2019-04-12 07:00:00 10.7 9 Norte 14 Norte 0 -- -- 99
2019-04-12 06:00:00 11.2 6 Norte 14 Norte 0 -- -- 100
2019-04-12 05:00:00 10.7 8 Norte 13 Nordeste 0 -- -- 99
2019-04-12 04:00:00 10.9 6 Norte 9 Norte 0 -- -- 98
2019-04-12 03:00:00 11.5 6 Norte 8 Norte 0 -- -- 97
2019-04-12 02:00:00 12.5 4 Norte 8 Norte 0 -- -- 96
2019-04-12 01:00:00 13.3 6 Nordeste 7 Norte 0 -- -- 93
2019-04-12 00:00:00 14.5 0 Calma 6 Oeste 0 -- -- 92
2019-04-11 23:00:00 14.8 3 Noroeste 17 Oeste 0 -- -- 89
2019-04-11 22:00:00 15.1 10 Oeste 24 Oeste 0 -- -- 87
2019-04-11 21:00:00 15.4 16 Oeste 28 Oeste 0 -- -- 86
2019-04-11 20:00:00 16 24 Oeste 32 Oeste 0 -- -- 83
2019-04-11 19:00:00 16.7 25 Oeste 32 Sudoeste 0 -- -- 81
2019-04-11 18:00:00 17 27 Oeste 36 Oeste 0 -- -- 82
2019-04-11 17:00:00 16.5 31 Oeste 36 Oeste 0 -- -- 82
2019-04-11 16:00:00 16.9 31 Oeste 36 Sudoeste 0 -- -- 82
2019-04-11 15:00:00 16.8 27 Sudoeste 33 Sudoeste 0 -- -- 81
2019-04-11 14:00:00 16.8 25 Oeste 31 Oeste 0 -- -- 82
2019-04-11 13:00:00 16.4 24 Sudoeste 28 Sudoeste 0 -- -- 81
2019-04-11 12:00:00 17.6 7 Sur 10 Sudoeste 0 -- -- 72
2019-04-11 11:00:00 15.5 3 Sudoeste 8 Nordeste 0 -- -- 77
2019-04-11 10:00:00 12.4 4 Norte 10 Nordeste 0 -- -- 86
2019-04-11 09:00:00 10.7 4 Nordeste 8 Norte 0 -- -- 98
2019-04-11 08:00:00 10 0 Calma -- -- 0 -- -- 100
2019-04-11 07:00:00 10.4 0 Calma 5 Norte 0 -- -- 100
2019-04-11 06:00:00 10.3 4 Nordeste 8 Nordeste 0 -- -- 99
2019-04-11 05:00:00 10.6 4 Nordeste 10 Norte 0 -- -- 97
2019-04-11 04:00:00 11.4 5 Norte 14 Nordeste 0 -- -- 94
2019-04-11 03:00:00 12.5 12 Nordeste 16 Nordeste 0 -- -- 91
2019-04-11 02:00:00 13.4 6 Nordeste 21 Noroeste 0 -- -- 88
2019-04-11 01:00:00 15 13 Noroeste 22 Noroeste 0 -- -- 83
2019-04-11 00:00:00 15.6 14 Noroeste 27 Noroeste 0 -- -- 87
2019-04-10 23:00:00 15.5 16 Noroeste 26 Oeste 0 -- -- 89
2019-04-10 22:00:00 15.7 19 Oeste 33 Oeste 0 -- -- 88
2019-04-10 21:00:00 15.8 23 Oeste 36 Oeste 0 -- -- 86
2019-04-10 20:00:00 16.6 25 Oeste 41 Oeste 0 -- -- 82
2019-04-10 19:00:00 16.8 26 Oeste 39 Oeste 0 -- -- 81
2019-04-10 18:00:00 17.6 22 Oeste 35 Noroeste 0 -- -- 72
2019-04-10 17:00:00 18 23 Noroeste 41 Oeste 0 -- -- 69
2019-04-10 16:00:00 18.1 28 Noroeste 40 Noroeste 0 -- -- 64
2019-04-10 15:00:00 17.5 23 Noroeste 39 Noroeste 0 -- -- 65
2019-04-10 14:00:00 16.9 22 Noroeste 35 Noroeste 0 -- -- 67
2019-04-10 13:00:00 16.9 20 Noroeste 33 Noroeste 0 -- -- 66
2019-04-10 12:00:00 16 16 Noroeste 25 Noroeste 0 -- -- 68
2019-04-10 11:00:00 14.7 11 Norte 23 Norte 0 -- -- 74
2019-04-10 10:00:00 12.8 6 Norte 14 Norte 0 -- -- 86
2019-04-10 09:00:00 10.5 4 Nordeste 9 Norte 0 -- -- 95
2019-04-10 08:00:00 10.1 7 Norte 14 Norte 0 -- -- 92
2019-04-10 07:00:00 10.7 11 Norte 19 Norte 0 -- -- 91
2019-04-10 06:00:00 11.2 15 Norte 23 Norte 0 -- -- 88
2019-04-10 05:00:00 11.8 13 Norte 22 Norte 0 -- -- 87
2019-04-10 04:00:00 12.1 11 Norte 19 Norte 0 -- -- 88
2019-04-10 03:00:00 12.8 11 Norte 19 Norte 0 -- -- 83
2019-04-10 02:00:00 13.9 14 Norte 28 Norte 0 -- -- 78
2019-04-10 01:00:00 14.4 14 Noroeste 24 Oeste 0 -- -- 89
2019-04-10 00:00:00 14.5 17 Oeste 26 Noroeste 0 -- -- 87
2019-04-09 23:00:00 14.7 19 Noroeste 31 Noroeste 0 -- -- 84
2019-04-09 22:00:00 14.6 15 Noroeste 26 Oeste 0 -- -- 82
2019-04-09 21:00:00 15.2 18 Oeste 30 Noroeste 0 -- -- 80
2019-04-09 20:00:00 16.4 24 Oeste 35 Oeste 0 -- -- 74
2019-04-09 19:00:00 16.7 27 Oeste 35 Oeste 0 -- -- 75
2019-04-09 18:00:00 17.2 23 Oeste 34 Oeste 0 -- -- 76
2019-04-09 17:00:00 16.6 19 Noroeste 35 Oeste 0 -- -- 75
2019-04-09 16:00:00 16.8 24 Oeste 37 Oeste 0 -- -- 74
2019-04-09 15:00:00 17.4 28 Oeste 39 Oeste 0 -- -- 74
2019-04-09 14:00:00 16.3 27 Oeste 36 Oeste 0 -- -- 82
2019-04-09 13:00:00 15.7 20 Oeste 32 Oeste 0.8 -- -- 79
2019-04-09 12:00:00 16.6 24 Oeste 32 Oeste 0 -- -- 78
2019-04-09 11:00:00 15.8 17 Oeste 26 Oeste 0 -- -- 77
2019-04-09 10:00:00 13.8 4 Nordeste 9 Norte 0 -- -- 94
2019-04-09 09:00:00 10.5 8 Nordeste 10 Nordeste 0 -- -- 99
2019-04-09 08:00:00 10.3 6 Nordeste 9 Nordeste 0 -- -- 96
2019-04-09 07:00:00 11.7 8 Norte 11 Norte 0 -- -- 90
2019-04-09 06:00:00 11.9 8 Norte 15 Norte 0 -- -- 89
2019-04-09 05:00:00 12.7 12 Noroeste 17 Norte 0 -- -- 86
2019-04-09 04:00:00 13 12 Noroeste 19 Noroeste 0 -- -- 88
2019-04-09 03:00:00 13.6 12 Noroeste 20 Oeste 0 -- -- 89
2019-04-09 02:00:00 13.9 13 Noroeste 19 Noroeste 0 -- -- 86
2019-04-09 01:00:00 14.1 12 Oeste 17 Oeste 0 -- -- 92
2019-04-09 00:00:00 14.2 12 Oeste 22 Noroeste 0 -- -- 92
2019-04-08 23:00:00 13.7 6 Oeste 19 Oeste 0 -- -- 90
2019-04-08 22:00:00 14.2 14 Oeste 37 Oeste 0.2 -- -- 94
2019-04-08 21:00:00 15.7 23 Oeste 38 Oeste 0 -- -- 94
2019-04-08 20:00:00 15.5 20 Sudoeste 27 Oeste 0 -- -- 97
2019-04-08 19:00:00 15.1 14 Oeste 26 Oeste 0.6 -- -- 98
2019-04-08 18:00:00 15.7 13 Oeste 32 Oeste 0.4 -- -- 95
2019-04-08 17:00:00 19.1 22 Sudoeste 29 Oeste 0 -- -- 83
2019-04-08 16:00:00 18.9 22 Oeste 28 Oeste 0 -- -- 84
2019-04-08 15:00:00 18.9 19 Oeste 26 Oeste 0 -- -- 86
2019-04-08 14:00:00 18.7 18 Oeste 26 Oeste 0 -- -- 85
2019-04-08 13:00:00 18.2 20 Oeste 26 Oeste 0 -- -- 87
2019-04-08 12:00:00 17.6 20 Sudoeste 27 Sudoeste 0 -- -- 88
2019-04-08 11:00:00 17.5 17 Sudoeste 23 Oeste 0 -- -- 91
2019-04-08 10:00:00 16.2 19 Oeste 29 Oeste 0 -- -- 96
2019-04-08 09:00:00 15.7 12 Sudoeste 23 Sudoeste 0 -- -- 100
2019-04-08 08:00:00 15.3 15 Sudoeste 19 Sudoeste 0 -- -- 99
2019-04-08 07:00:00 14.5 10 Sudoeste 22 Sudoeste 0 -- -- 98
2019-04-08 06:00:00 14.5 23 Sudoeste 37 Sudoeste 0 -- -- 97
2019-04-08 05:00:00 15.8 24 Sudoeste 31 Oeste 0 -- -- 98
2019-04-08 04:00:00 15.6 15 Oeste 21 Oeste 0 -- -- 98
2019-04-08 03:00:00 15.1 15 Oeste 28 Sudoeste 0 -- -- 97
2019-04-08 02:00:00 14.9 21 Sudoeste 39 Oeste 0.2 -- -- 98
2019-04-08 01:00:00 15.8 26 Sudoeste 44 Sudoeste 0 -- -- 97
2019-04-08 00:00:00 15.9 18 Oeste 21 Sudoeste 0 -- -- 98
2019-04-07 23:00:00 15.9 18 Oeste 28 Oeste 0 -- -- 97
2019-04-07 22:00:00 16.1 24 Oeste 33 Oeste 0 -- -- 95
2019-04-07 21:00:00 16.3 27 Oeste 32 Oeste 0 -- -- 95
2019-04-07 20:00:00 16.4 27 Oeste 37 Oeste 0 -- -- 93
2019-04-07 19:00:00 16.6 28 Oeste 39 Oeste 0 -- -- 91
2019-04-07 18:00:00 16.6 32 Oeste 42 Oeste 0 -- -- 88
2019-04-07 17:00:00 16.9 32 Sudoeste 41 Sudoeste 0 -- -- 86
2019-04-07 16:00:00 16.7 31 Oeste 39 Oeste 0 -- -- 85
2019-04-07 15:00:00 17.4 30 Oeste 39 Oeste 0 -- -- 81
2019-04-07 14:00:00 17.5 24 Oeste 36 Oeste 0 -- -- 82
2019-04-07 13:00:00 16.8 22 Oeste 35 Sudoeste 0 -- -- 84
2019-04-07 12:00:00 14.8 33 Oeste 49 Oeste 0 -- -- 89
2019-04-07 11:00:00 15.7 27 Oeste 39 Oeste 0 -- -- 75
2019-04-07 10:00:00 15.5 26 Oeste 41 Oeste 0 -- -- 73
2019-04-07 09:00:00 15 23 Oeste 35 Oeste 0 -- -- 73
2019-04-07 08:00:00 14.7 26 Oeste 40 Oeste 0 -- -- 79
2019-04-07 07:00:00 14.5 15 Oeste 32 Oeste 0 -- -- 78
2019-04-07 06:00:00 14.7 25 Oeste 39 Oeste 0 -- -- 85
2019-04-07 05:00:00 14.3 36 Oeste 45 Oeste 0 -- -- 85
2019-04-07 04:00:00 14.3 19 Oeste 36 Oeste 0 -- -- 77
2019-04-07 03:00:00 13.2 13 Noroeste 27 Noroeste 0 -- -- 88
2019-04-07 02:00:00 13.4 18 Noroeste 36 Noroeste 0 -- -- 86
2019-04-07 01:00:00 14.2 19 Oeste 34 Oeste 0 -- -- 77
2019-04-07 00:00:00 14.4 23 Oeste 36 Oeste 0 -- -- 77
2019-04-06 23:00:00 14.1 21 Oeste 37 Oeste 0 -- -- 76
2019-04-06 22:00:00 14.2 21 Noroeste 39 Oeste 0 -- -- 75
2019-04-06 21:00:00 14.6 31 Oeste 46 Oeste 0 -- -- 74
2019-04-06 20:00:00 15.1 31 Oeste 48 Sudoeste 0 -- -- 71
2019-04-06 19:00:00 15.4 31 Oeste 55 Oeste 0 -- -- 73
2019-04-06 18:00:00 14.7 37 Oeste 46 Oeste 0.6 -- -- 82
2019-04-06 17:00:00 13.5 33 Noroeste 50 Noroeste 0.4 -- -- 83
2019-04-06 16:00:00 15.1 29 Oeste 41 Oeste 0 -- -- 81
2019-04-06 15:00:00 12.9 19 Noroeste 37 Noroeste 0.4 -- -- 90
2019-04-06 14:00:00 12.6 20 Oeste 49 Oeste 0.6 -- -- 88
2019-04-06 13:00:00 12 29 Oeste 50 Oeste 1 -- -- 89
2019-04-06 12:00:00 14.6 19 Noroeste 37 Oeste 0 -- -- 78
2019-04-06 11:00:00 14.5 26 Oeste 37 Oeste 0 -- -- 76
2019-04-06 10:00:00 12.8 12 Norte 34 Oeste 0 -- -- 83
2019-04-06 09:00:00 12 14 Noroeste 41 Oeste 0 -- -- 85
2019-04-06 08:00:00 11.3 17 Oeste 35 Oeste 4 -- -- 87
2019-04-06 07:00:00 10.6 2 Oeste 33 Oeste 0.6 -- -- 89
2019-04-06 06:00:00 10.8 23 Noroeste 44 Noroeste 0.4 -- -- 85
2019-04-06 05:00:00 11.9 21 Oeste 39 Oeste 0 -- -- 86
2019-04-06 04:00:00 10.6 10 Noroeste 24 Noroeste 5.2 -- -- 93
2019-04-06 03:00:00 10.1 13 Norte 56 Oeste 2.4 -- -- 91
2019-04-06 02:00:00 11.7 15 Noroeste 28 Noroeste 1.4 -- -- 86
2019-04-06 01:00:00 12.7 11 Noroeste 32 Noroeste 0 -- -- 73
2019-04-06 00:00:00 13.2 22 Noroeste 37 Noroeste 0 -- -- 68
2019-04-05 23:00:00 13.3 19 Noroeste 36 Oeste 0 -- -- 69
2019-04-05 22:00:00 13.4 21 Noroeste 40 Noroeste 0 -- -- 69
2019-04-05 21:00:00 13.8 25 Noroeste 41 Oeste 0 -- -- 69
2019-04-05 20:00:00 14.4 24 Oeste 49 Oeste 0 -- -- 68
2019-04-05 19:00:00 15.7 28 Noroeste 48 Oeste 0 -- -- 63
2019-04-05 18:00:00 15.8 27 Oeste 49 Oeste 0 -- -- 60
2019-04-05 17:00:00 15.4 35 Noroeste 56 Oeste 0 -- -- 57
2019-04-05 16:00:00 15.3 33 Noroeste 51 Noroeste 0 -- -- 62
2019-04-05 15:00:00 15.1 30 Noroeste 49 Noroeste 0 -- -- 63
2019-04-05 14:00:00 14.3 24 Noroeste 51 Noroeste 0 -- -- 71
2019-04-05 13:00:00 13.8 26 Noroeste 44 Noroeste 0.2 -- -- 81
2019-04-05 12:00:00 12.2 18 Noroeste 49 Sudoeste 7 -- -- 96
2019-04-05 11:00:00 13.8 42 Sudoeste 51 Sudoeste 0.4 -- -- 93
2019-04-05 10:00:00 13.3 35 Oeste 44 Oeste 0.8 -- -- 95
2019-04-05 09:00:00 12.2 19 Oeste 73 Oeste 3.6 -- -- 97
2019-04-05 08:00:00 14.7 48 Oeste 63 Sudoeste 0.2 -- -- 89
2019-04-05 07:00:00 14.6 45 Sudoeste 60 Oeste 0.2 -- -- 88
2019-04-05 06:00:00 14.4 46 Sudoeste 68 Sudoeste 0 -- -- 85
2019-04-05 05:00:00 15 40 Oeste 48 Oeste 0 -- -- 77
2019-04-05 04:00:00 15 34 Oeste 41 Sudoeste 0 -- -- 76
2019-04-05 03:00:00 15.1 31 Oeste 41 Oeste 0 -- -- 72
2019-04-05 02:00:00 14.5 33 Oeste 43 Oeste 0 -- -- 76
2019-04-05 01:00:00 14.7 25 Oeste 41 Oeste 0 -- -- 68
2019-04-05 00:00:00 14.3 21 Oeste 38 Oeste 0 -- -- 70
2019-04-04 23:00:00 14.7 24 Oeste 40 Oeste 0 -- -- 68
2019-04-04 22:00:00 14.4 24 Oeste 38 Sudoeste 0 -- -- 67
2019-04-04 21:00:00 14.2 27 Oeste 35 Oeste 0 -- -- 67
2019-04-04 20:00:00 15.2 27 Oeste 35 Oeste 0 -- -- 62
2019-04-04 19:00:00 15.5 24 Oeste 33 Oeste 0 -- -- 65
2019-04-04 18:00:00 15.9 27 Oeste 34 Oeste 0 -- -- 70
2019-04-04 17:00:00 16.2 26 Oeste 32 Oeste 0 -- -- 68
2019-04-04 16:00:00 16.6 18 Oeste 28 Oeste 0 -- -- 64
2019-04-04 15:00:00 16.3 23 Oeste 32 Oeste 0 -- -- 63
2019-04-04 14:00:00 16.1 25 Oeste 34 Oeste 0 -- -- 65
2019-04-04 13:00:00 16.1 24 Sudoeste 30 Sudoeste 0 -- -- 66
2019-04-04 12:00:00 15.9 13 Sudoeste 17 Sudoeste 0 -- -- 68
2019-04-04 11:00:00 13.1 3 Este 8 Norte 0 -- -- 69
2019-04-04 10:00:00 11.4 3 Norte 9 Norte 0 -- -- 75
2019-04-04 09:00:00 9.2 6 Nordeste 14 Nordeste 0 -- -- 85
2019-04-04 08:00:00 8.9 11 Nordeste 17 Nordeste 0 -- -- 83
2019-04-04 07:00:00 9.9 11 Nordeste 18 Nordeste 0 -- -- 77
2019-04-04 06:00:00 11 10 Norte 17 Norte 0 -- -- 78
2019-04-04 05:00:00 11.9 10 Norte 21 Noroeste 0 -- -- 73
2019-04-04 04:00:00 12.7 13 Norte 24 Noroeste 0 -- -- 68
2019-04-04 03:00:00 13.9 17 Noroeste 25 Noroeste 0 -- -- 66
2019-04-04 02:00:00 14.5 12 Noroeste 23 Noroeste 0 -- -- 80
2019-04-04 01:00:00 14.7 15 Oeste 21 Oeste 0 -- -- 88
2019-04-04 00:00:00 14.6 14 Oeste 23 Oeste 0 -- -- 88
2019-04-03 23:00:00 14.8 16 Noroeste 22 Oeste 0 -- -- 85
2019-04-03 22:00:00 15.2 14 Noroeste 23 Noroeste 0 -- -- 80
2019-04-03 21:00:00 16.3 17 Noroeste 23 Noroeste 0 -- -- 73
2019-04-03 20:00:00 19.2 17 Noroeste 34 Noroeste 0 -- -- 53
2019-04-03 19:00:00 20.9 18 Noroeste 30 Noroeste 0 -- -- 48
2019-04-03 18:00:00 22 19 Noroeste 31 Noroeste 0 -- -- 46
2019-04-03 17:00:00 22.6 18 Noroeste 30 Noroeste 0 -- -- 51
2019-04-03 16:00:00 22 20 Oeste 31 Oeste 0 -- -- 58
2019-04-03 15:00:00 21.3 12 Noroeste 24 Oeste 0 -- -- 67
2019-04-03 14:00:00 21.5 11 Noroeste 25 Oeste 0 -- -- 63
2019-04-03 13:00:00 18.5 19 Oeste 24 Oeste 0 -- -- 86
2019-04-03 12:00:00 17.5 16 Oeste 22 Oeste 0 -- -- 88
2019-04-03 11:00:00 15 5 Oeste 11 Norte 0 -- -- 100
2019-04-03 10:00:00 11.4 6 Nordeste 13 Norte 0 -- -- 100
2019-04-03 09:00:00 9.7 9 Norte 15 Norte 0 -- -- 100
2019-04-03 08:00:00 9.3 12 Norte 17 Norte 0 -- -- 100
2019-04-03 07:00:00 10.1 9 Norte 16 Norte 0 -- -- 100
2019-04-03 06:00:00 10.7 9 Norte 14 Norte 0 -- -- 100
2019-04-03 05:00:00 11.1 7 Norte 10 Norte 0 -- -- 99
2019-04-03 04:00:00 11.9 6 Norte 8 Norte 0 -- -- 98
2019-04-03 03:00:00 12.3 4 Norte 9 Nordeste 0 -- -- 97
2019-04-03 02:00:00 13.2 4 Norte 6 Norte 0 -- -- 97
2019-04-03 01:00:00 13.2 5 Nordeste 12 Nordeste 0 -- -- 95
2019-04-03 00:00:00 14.5 4 Norte 11 Norte 0 -- -- 90
2019-04-02 23:00:00 15.2 4 Nordeste 9 Este 0 -- -- 92
2019-04-02 22:00:00 16.5 3 Este 9 Sudoeste 0 -- -- 88
2019-04-02 21:00:00 17.4 3 Nordeste 14 Norte 0 -- -- 84
2019-04-02 20:00:00 18.4 8 Noroeste 15 Sudoeste 0 -- -- 79
2019-04-02 19:00:00 20.1 15 Sudoeste 21 Sudoeste 0 -- -- 80
2019-04-02 18:00:00 18.4 10 Sur 20 Sudoeste 0 -- -- 86
2019-04-02 17:00:00 18.7 18 Sudoeste 21 Sudoeste 0 -- -- 84
2019-04-02 16:00:00 20 13 Sudoeste 20 Sudoeste 0 -- -- 80
2019-04-02 15:00:00 19 14 Sudoeste 17 Sudoeste 0 -- -- 80
2019-04-02 14:00:00 19.5 13 Sudoeste 18 Oeste 0 -- -- 74
2019-04-02 13:00:00 19.6 6 Norte 16 Nordeste 0 -- -- 62
2019-04-02 12:00:00 16.6 11 Nordeste 17 Nordeste 0 -- -- 90
2019-04-02 11:00:00 13.1 12 Nordeste 15 Norte 0 -- -- 100
2019-04-02 10:00:00 10.8 8 Norte 17 Norte 0 -- -- 100
2019-04-02 09:00:00 9.7 9 Norte 13 Norte 0 -- -- 100
2019-04-02 08:00:00 9.8 7 Nordeste 14 Nordeste 0 -- -- 100
2019-04-02 07:00:00 10.6 5 Norte 14 Norte 0 -- -- 100
2019-04-02 06:00:00 10.3 10 Norte 15 Norte 0 -- -- 100
2019-04-02 05:00:00 10.3 7 Norte 10 Norte 0 -- -- 100
2019-04-02 04:00:00 11.4 6 Norte 12 Norte 0 -- -- 100
2019-04-02 03:00:00 11.4 7 Nordeste 12 Nordeste 0 -- -- 100
2019-04-02 02:00:00 12.4 7 Norte 10 Norte 0 -- -- 99
2019-04-02 01:00:00 12.5 7 Norte 9 Norte 0 -- -- 98
2019-04-02 00:00:00 13.6 5 Norte 7 Norte 0 -- -- 97
2019-04-01 23:00:00 14.3 5 Norte 8 Nordeste 0 -- -- 94
2019-04-01 22:00:00 15.8 0 Calma 13 Sudoeste 0 -- -- 91
2019-04-01 21:00:00 16.4 10 Sudoeste 14 Sudoeste 0 -- -- 88
2019-04-01 20:00:00 18 11 Oeste 18 Oeste 0 -- -- 84
2019-04-01 19:00:00 18.9 14 Oeste 19 Oeste 0 -- -- 82
2019-04-01 18:00:00 19.2 15 Oeste 21 Oeste 0 -- -- 81
2019-04-01 17:00:00 19.5 14 Sudoeste 22 Sudoeste 0 -- -- 84
2019-04-01 16:00:00 19 18 Sudoeste 24 Sudoeste 0 -- -- 86
2019-04-01 15:00:00 18.6 19 Sudoeste 24 Sudoeste 0 -- -- 85
2019-04-01 14:00:00 18.1 19 Sudoeste 25 Sudoeste 0 -- -- 86
2019-04-01 13:00:00 17.5 20 Sudoeste 30 Sudoeste 0 -- -- 88
2019-04-01 12:00:00 16.3 12 Sudoeste 26 Sudoeste 0 -- -- 94
2019-04-01 11:00:00 14.6 24 Sudoeste 44 Sudoeste 1.6 -- -- 99
2019-04-01 10:00:00 14.7 35 Sudoeste 41 Sudoeste 1 -- -- 99
2019-04-01 09:00:00 14.7 27 Sudoeste 39 Sudoeste 1 -- -- 98
2019-04-01 08:00:00 14.8 32 Sur 43 Sur 1 -- -- 99
2019-04-01 07:00:00 15.3 33 Sudoeste 43 Sudoeste 0.2 -- -- 99
2019-04-01 06:00:00 15.2 34 Sudoeste 41 Sudoeste 8.8 -- -- 100
2019-04-01 05:00:00 14.4 36 Sudoeste 45 Sudoeste 3 -- -- 98
2019-04-01 04:00:00 16.1 30 Sur 36 Sur 0 -- -- 95
2019-04-01 03:00:00 16.2 27 Sur 33 Sur 0 -- -- 94
2019-04-01 02:00:00 16.3 23 Sur 28 Sur 0 -- -- 95
2019-04-01 01:00:00 16.3 22 Sur 24 Sur 0 -- -- 96
2019-04-01 00:00:00 16.2 14 Sur 19 Sudoeste 0 -- -- 95
2019-03-31 23:00:00 16.3 16 Sudoeste 19 Sudoeste 0 -- -- 95
2019-03-31 22:00:00 16.5 14 Sudoeste 24 Sudoeste 0 -- -- 94
2019-03-31 21:00:00 16.8 18 Sudoeste 23 Sudoeste 0 -- -- 93
2019-03-31 20:00:00 17.9 16 Sur 22 Sur 0 -- -- 86
2019-03-31 19:00:00 19.4 17 Sur 19 Sur 0 -- -- 81
2019-03-31 18:00:00 20 15 Sur 18 Sudoeste 0 -- -- 78
2019-03-31 17:00:00 20.7 13 Sur 19 Sur 0 -- -- 73
2019-03-31 16:00:00 20 17 Sur 24 Sur 0 -- -- 74
2019-03-31 15:00:00 19.3 22 Sur 33 Sudeste 0 -- -- 77
2019-03-31 14:00:00 18.2 31 Sur 37 Sur 0 -- -- 78
2019-03-31 13:00:00 18.2 27 Sur 32 Sur 0 -- -- 80
2019-03-31 12:00:00 18.6 13 Sudoeste 17 Sur 0 -- -- 77
2019-03-31 11:00:00 16.7 9 Este 21 Nordeste 0 -- -- 80
2019-03-31 10:00:00 15.2 6 Norte 16 Norte 0 -- -- 86
2019-03-31 09:00:00 13.9 5 Norte 37 Este 0 -- -- 88
2019-03-31 08:00:00 14 13 Este 26 Este 0 -- -- 86
2019-03-31 07:00:00 14.1 10 Este 31 Este 0 -- -- 84
2019-03-31 06:00:00 14.2 12 Nordeste 36 Sudeste 0 -- -- 88
2019-03-31 05:00:00 14.9 9 Este 31 Este 0 -- -- 87
2019-03-31 03:00:00 15.4 24 Sudeste 41 Este 0 -- -- 88
2019-03-31 01:00:00 15.3 7 Nordeste 33 Sudeste 0 -- -- 87
2019-03-31 00:00:00 15.3 18 Este 39 Sudeste 0 -- -- 86
2019-03-30 23:00:00 15.3 13 Este 39 Sudeste 0 -- -- 84
2019-03-30 22:00:00 15.5 23 Sudeste 44 Sudeste 0 -- -- 83
2019-03-30 21:00:00 15.3 22 Este 45 Sudeste 0 -- -- 85
2019-03-30 20:00:00 15.7 29 Este 50 Sudeste 0 -- -- 83
2019-03-30 19:00:00 15.9 27 Sudeste 45 Sudeste 0 -- -- 83
2019-03-30 18:00:00 16.5 21 Sudeste 43 Sudeste 0 -- -- 80
2019-03-30 17:00:00 16.9 21 Sudeste 50 Este 0 -- -- 79
2019-03-30 16:00:00 17.7 30 Sudeste 61 Este 0 -- -- 75
2019-03-30 15:00:00 18.2 36 Sudeste 68 Este 0 -- -- 73
2019-03-30 14:00:00 17.7 39 Este 66 Este 0 -- -- 73
2019-03-30 13:00:00 19 33 Este 66 Este 0 -- -- 69
2019-03-30 12:00:00 18.2 37 Este 66 Este 0 -- -- 72
2019-03-30 11:00:00 17.8 32 Este 54 Sudeste 0 -- -- 72
2019-03-30 10:00:00 17.2 30 Este 62 Este 0 -- -- 73
2019-03-30 09:00:00 16.4 14 Este 43 Sudeste 0 -- -- 76
2019-03-30 08:00:00 14.6 16 Este 42 Este 0 -- -- 82
2019-03-30 07:00:00 14.6 26 Este 62 Este 0 -- -- 80
2019-03-30 06:00:00 14.6 26 Sudeste 51 Sudeste 0 -- -- 79
2019-03-30 05:00:00 14.8 17 Sudeste 59 Este 0 -- -- 76
2019-03-30 04:00:00 14.7 33 Sudeste 68 Sudeste 0 -- -- 77
2019-03-30 03:00:00 14.9 39 Este 77 Sudeste 0 -- -- 76
2019-03-30 02:00:00 14.9 44 Sudeste 80 Sudeste 0 -- -- 77
2019-03-30 01:00:00 14.9 44 Sudeste 72 Sudeste 0 -- -- 78
2019-03-30 00:00:00 14.9 42 Sudeste 78 Sudeste 0 -- -- 77
2019-03-29 23:00:00 15 39 Este 73 Este 0 -- -- 77
2019-03-29 22:00:00 15 39 Este 68 Este 0 -- -- 78
2019-03-29 21:00:00 15.1 33 Este 58 Este 0 -- -- 77
2019-03-29 20:00:00 15.3 27 Este 63 Este 0 -- -- 74
2019-03-29 19:00:00 16.2 28 Este 54 Sudeste 0 -- -- 72
2019-03-29 18:00:00 17.1 33 Este 63 Este 0 -- -- 68
2019-03-29 17:00:00 17.9 37 Este 67 Este 0 -- -- 68
2019-03-29 16:00:00 18 37 Sudeste 63 Sudeste 0 -- -- 67
2019-03-29 15:00:00 18.6 37 Sudeste 65 Sudeste 0 -- -- 66
2019-03-29 14:00:00 18.3 36 Este 66 Este 0 -- -- 67
2019-03-29 13:00:00 18.8 35 Este 62 Este 0 -- -- 65
2019-03-29 12:00:00 19 40 Sudeste 63 Este 0 -- -- 62
2019-03-29 11:00:00 16.8 37 Sudeste 64 Sudeste 0 -- -- 69
2019-03-29 10:00:00 16 37 Sudeste 67 Sudeste 0 -- -- 70
2019-03-29 09:00:00 15.1 37 Sudeste 60 Sudeste 0 -- -- 74
2019-03-29 08:00:00 14.7 38 Sudeste 60 Sudeste 0 -- -- 75
2019-03-29 07:00:00 14.5 34 Sudeste 57 Sudeste 0 -- -- 75
2019-03-29 06:00:00 14.4 37 Sudeste 64 Sudeste 0 -- -- 76
2019-03-29 05:00:00 14.5 35 Sudeste 60 Sudeste 0 -- -- 75
2019-03-29 04:00:00 14.4 31 Sudeste 60 Sudeste 0 -- -- 75
2019-03-29 03:00:00 14.2 35 Sudeste 66 Sudeste 0 -- -- 73
2019-03-29 02:00:00 14.2 38 Sudeste 81 Sudeste 0 -- -- 73
2019-03-29 01:00:00 14.4 42 Sudeste 81 Sudeste 0 -- -- 74
2019-03-29 00:00:00 14.5 34 Este 63 Este 0 -- -- 71
2019-03-28 23:00:00 14.7 31 Sudeste 65 Sudeste 0 -- -- 67
2019-03-28 22:00:00 14.8 45 Sudeste 65 Sudeste 0 -- -- 67
2019-03-28 21:00:00 14.9 36 Sudeste 61 Sudeste 0 -- -- 73
2019-03-28 20:00:00 15.2 32 Sudeste 62 Sudeste 0 -- -- 73
2019-03-28 19:00:00 16.4 36 Sudeste 72 Sudeste 0 -- -- 66
2019-03-28 18:00:00 17.1 40 Sudeste 66 Sudeste 0 -- -- 66
2019-03-28 17:00:00 18.1 38 Sudeste 65 Sudeste 0 -- -- 63
2019-03-28 16:00:00 18.3 39 Este 72 Este 0 -- -- 61
2019-03-28 15:00:00 19.3 39 Este 73 Este 0 -- -- 59
2019-03-28 14:00:00 18 49 Este 84 Este 0 -- -- 62
2019-03-28 13:00:00 18.2 50 Sudeste 85 Sudeste 0 -- -- 62
2019-03-28 12:00:00 18.2 41 Este 73 Este 0 -- -- 59
2019-03-28 11:00:00 17.6 33 Este 59 Este 0 -- -- 62
2019-03-28 10:00:00 17.2 24 Este 53 Sudeste 0 -- -- 62
2019-03-28 09:00:00 15.9 14 Nordeste 50 Este 0 -- -- 64
2019-03-28 08:00:00 14.1 11 Este 28 Sudeste 0 -- -- 66
2019-03-28 07:00:00 13.8 14 Este 44 Este 0 -- -- 68
2019-03-28 06:00:00 13.8 16 Este 62 Este 0 -- -- 68
2019-03-28 05:00:00 14 27 Este 50 Este 0 -- -- 69
2019-03-28 04:00:00 14 28 Este 53 Este 0 -- -- 68
2019-03-28 03:00:00 14.2 26 Este 55 Este 0 -- -- 67
2019-03-28 02:00:00 14.4 27 Este 55 Sudeste 0 -- -- 68
2019-03-28 01:00:00 14.5 31 Sudeste 63 Este 0 -- -- 66
2019-03-28 00:00:00 14.8 32 Sudeste 61 Este 0 -- -- 69
2019-03-27 23:00:00 14.7 25 Sudeste 49 Sudeste 0 -- -- 68
2019-03-27 22:00:00 14.7 22 Este 42 Este 0 -- -- 64
2019-03-27 21:00:00 14.6 24 Este 46 Este 0 -- -- 68
2019-03-27 20:00:00 14.9 24 Este 57 Este 0 -- -- 68
2019-03-27 19:00:00 15.7 38 Este 51 Este 0 -- -- 63
2019-03-27 18:00:00 17.1 36 Este 57 Este 0 -- -- 60
2019-03-27 17:00:00 17.8 36 Este 62 Este 0 -- -- 55
2019-03-27 16:00:00 18.2 39 Este 60 Este 0 -- -- 55
2019-03-27 15:00:00 17.8 40 Este 63 Este 0 -- -- 53
2019-03-27 14:00:00 17.4 38 Este 71 Este 0 -- -- 54
2019-03-27 13:00:00 17.4 42 Este 73 Este 0 -- -- 57
2019-03-27 12:00:00 17.3 49 Este 80 Este 0 -- -- 56
2019-03-27 11:00:00 17.6 37 Este 71 Este 0 -- -- 59
2019-03-27 10:00:00 16.5 35 Sudeste 64 Este 0 -- -- 59
2019-03-27 09:00:00 15.8 25 Este 77 Sudeste 0 -- -- 60
2019-03-27 08:00:00 14.7 33 Sudeste 66 Este 0 -- -- 63
2019-03-27 07:00:00 14.7 36 Sudeste 65 Sudeste 0 -- -- 63
2019-03-27 06:00:00 14.7 30 Sudeste 76 Este 0 -- -- 63
2019-03-27 05:00:00 14.7 37 Este 73 Sudeste 0 -- -- 64
2019-03-27 04:00:00 15.1 41 Sudeste 77 Sudeste 0 -- -- 57
2019-03-27 03:00:00 15.4 48 Sudeste 79 Sudeste 0 -- -- 58
2019-03-27 02:00:00 15.4 50 Sudeste 85 Sudeste 0 -- -- 58
2019-03-27 01:00:00 15.8 52 Sudeste 88 Sudeste 0 -- -- 59
2019-03-27 00:00:00 16 50 Sudeste 84 Este 0 -- -- 63